createdAt,value
2022-08-01T00:02:45.529Z,55.12
2022-08-01T00:05:51.941Z,55.14
2022-08-01T00:08:59.026Z,55.23
2022-08-01T00:12:04.871Z,55.28
2022-08-01T00:15:10.825Z,55.37
2022-08-01T00:18:17.910Z,55.44
2022-08-01T00:21:23.873Z,55.44
2022-08-01T00:24:30.868Z,55.47
2022-08-01T00:27:40.503Z,55.51
2022-08-01T00:30:47.478Z,55.53
2022-08-01T00:33:52.928Z,55.55
2022-08-01T00:37:00.110Z,55.57
2022-08-01T00:40:06.995Z,55.58
2022-08-01T00:43:12.854Z,55.60
2022-08-01T00:46:21.469Z,55.60
2022-08-01T00:49:26.533Z,55.60
2022-08-01T00:52:32.572Z,55.61
2022-08-01T00:55:38.730Z,55.62
2022-08-01T00:58:44.278Z,55.61
2022-08-01T01:01:52.329Z,55.66
2022-08-01T01:05:00.101Z,55.68
2022-08-01T01:08:19.881Z,55.69
2022-08-01T01:11:33.209Z,55.73
2022-08-01T01:15:12.042Z,55.80
2022-08-01T01:18:28.128Z,55.83
2022-08-01T01:21:39.127Z,55.83
2022-08-01T01:24:51.631Z,55.89
2022-08-01T01:28:21.541Z,55.90
2022-08-01T01:31:30.065Z,55.96
2022-08-01T01:34:37.765Z,55.98
2022-08-01T01:37:45.085Z,55.97
2022-08-01T01:40:52.755Z,55.98
2022-08-01T01:43:52.354Z,56.04
2022-08-01T01:46:58.327Z,56.03
2022-08-01T01:50:04.171Z,56.05
2022-08-01T01:53:15.151Z,56.04
2022-08-01T01:56:18.027Z,56.08
2022-08-01T01:59:25.787Z,56.13
2022-08-01T02:02:30.486Z,56.13
2022-08-01T02:05:37.751Z,56.10
2022-08-01T02:08:44.228Z,56.08
2022-08-01T02:11:59.196Z,56.12
2022-08-01T02:15:01.369Z,56.18
2022-08-01T02:18:06.819Z,56.29
2022-08-01T02:21:12.066Z,56.33
2022-08-01T02:24:23.123Z,56.37
2022-08-01T02:27:41.492Z,56.37
2022-08-01T02:30:51.436Z,56.37
2022-08-01T02:34:01.035Z,56.32
2022-08-01T02:37:07.765Z,56.29
2022-08-01T02:40:14.369Z,56.29
2022-08-01T02:43:19.809Z,56.28
2022-08-01T02:46:28.297Z,56.27
2022-08-01T02:49:35.633Z,56.27
2022-08-01T02:52:43.234Z,56.27
2022-08-01T02:55:49.654Z,56.30
2022-08-01T02:58:56.444Z,56.32
2022-08-01T03:02:03.568Z,56.35
2022-08-01T03:05:10.553Z,56.41
2022-08-01T03:08:17.581Z,56.43
2022-08-01T03:11:24.165Z,56.41
2022-08-01T03:14:32.574Z,56.45
2022-08-01T03:17:39.768Z,56.50
2022-08-01T03:20:47.560Z,56.57
2022-08-01T03:23:55.240Z,56.57
2022-08-01T03:27:01.771Z,56.65
2022-08-01T03:30:07.199Z,56.69
2022-08-01T03:33:14.640Z,56.74
2022-08-01T03:36:21.255Z,56.84
2022-08-01T03:39:27.260Z,56.90
2022-08-01T03:42:39.436Z,57.00
2022-08-01T03:45:54.038Z,57.14
2022-08-01T03:49:03.915Z,57.29
2022-08-01T03:52:10.199Z,57.37
2022-08-01T03:55:20.358Z,57.44
2022-08-01T03:58:26.000Z,57.46
2022-08-01T04:01:32.661Z,57.49
2022-08-01T04:04:40.280Z,57.56
2022-08-01T04:07:48.618Z,57.73
2022-08-01T04:10:56.512Z,57.95
2022-08-01T04:14:03.577Z,58.15
2022-08-01T04:17:12.722Z,58.29
2022-08-01T04:20:19.189Z,58.40
2022-08-01T04:23:25.359Z,58.47
2022-08-01T04:26:32.746Z,58.54
2022-08-01T04:29:41.270Z,58.58
2022-08-01T04:32:53.312Z,58.72
2022-08-01T04:36:04.762Z,58.83
2022-08-01T04:39:16.765Z,58.92
2022-08-01T04:42:28.201Z,59.02
2022-08-01T04:45:29.714Z,59.08
2022-08-01T04:48:38.349Z,59.17
2022-08-01T04:51:43.861Z,59.30
2022-08-01T04:54:54.809Z,59.41
2022-08-01T04:58:05.126Z,59.60
2022-08-01T05:01:15.740Z,59.77
2022-08-01T05:04:21.451Z,59.92
2022-08-01T05:07:29.678Z,60.02
2022-08-01T05:10:35.587Z,60.12
2022-08-01T05:13:44.050Z,60.20
2022-08-01T05:16:51.173Z,60.36
2022-08-01T05:19:59.584Z,60.56
2022-08-01T05:23:06.087Z,60.66
2022-08-01T05:26:13.862Z,60.75
2022-08-01T05:29:21.091Z,60.85
2022-08-01T05:32:27.987Z,60.98
2022-08-01T05:35:48.351Z,61.09
2022-08-01T05:38:44.506Z,61.16
2022-08-01T05:41:50.588Z,61.27
2022-08-01T05:44:58.461Z,61.35
2022-08-01T05:48:06.073Z,61.30
2022-08-01T05:51:12.716Z,61.42
2022-08-01T05:54:19.369Z,61.65
2022-08-01T05:57:27.737Z,61.78
2022-08-01T06:00:35.792Z,61.75
2022-08-01T06:03:40.899Z,61.91
2022-08-01T06:06:49.083Z,61.99
2022-08-01T06:09:56.577Z,61.96
2022-08-01T06:13:02.383Z,62.03
2022-08-01T06:16:08.848Z,62.12
2022-08-01T06:19:15.107Z,62.10
2022-08-01T06:26:09.749Z,62.38
2022-08-01T06:29:16.114Z,62.46
2022-08-01T06:32:26.905Z,62.44
2022-08-01T06:35:30.774Z,62.43
2022-08-01T06:38:37.104Z,62.47
2022-08-01T06:41:44.306Z,62.54
2022-08-01T06:44:53.350Z,62.56
2022-08-01T06:48:00.049Z,62.65
2022-08-01T06:51:20.065Z,62.54
2022-08-01T06:54:25.061Z,62.66
2022-08-01T06:57:30.833Z,62.67
2022-08-01T07:00:40.904Z,62.62
2022-08-01T07:03:54.535Z,62.68
2022-08-01T07:06:56.375Z,62.66
2022-08-01T07:10:03.382Z,62.69
2022-08-01T07:13:09.851Z,62.55
2022-08-01T07:16:16.929Z,62.67
2022-08-01T07:19:25.538Z,62.79
2022-08-01T07:22:34.543Z,62.99
2022-08-01T07:25:42.239Z,63.12
2022-08-01T07:28:49.717Z,63.08
2022-08-01T07:31:55.038Z,63.17
2022-08-01T07:35:02.294Z,63.29
2022-08-01T07:38:12.825Z,63.37
2022-08-01T07:41:20.349Z,63.41
2022-08-01T07:44:30.066Z,63.48
2022-08-01T07:47:44.285Z,63.39
2022-08-01T07:50:51.088Z,63.47
2022-08-01T07:53:56.044Z,63.50
2022-08-01T07:57:01.213Z,63.65
2022-08-01T08:00:07.806Z,63.65
2022-08-01T08:03:13.130Z,63.77
2022-08-01T08:06:33.340Z,63.86
2022-08-01T08:09:38.752Z,63.90
2022-08-01T08:12:44.805Z,64.00
2022-08-01T08:15:51.585Z,63.98
2022-08-01T08:18:57.337Z,64.03
2022-08-01T08:22:03.156Z,64.11
2022-08-01T08:25:08.855Z,64.27
2022-08-01T08:28:14.445Z,64.40
2022-08-01T08:31:25.059Z,64.47
2022-08-01T08:34:32.121Z,64.54
2022-08-01T08:37:42.777Z,64.58
2022-08-01T08:40:47.868Z,64.59
2022-08-01T08:43:54.255Z,64.66
2022-08-01T08:47:05.716Z,64.76
2022-08-01T08:50:14.018Z,64.92
2022-08-01T08:53:21.707Z,65.06
2022-08-01T08:56:29.121Z,65.18
2022-08-01T08:59:34.438Z,65.40
2022-08-01T09:03:03.121Z,65.53
2022-08-01T09:06:11.330Z,65.74
2022-08-01T09:09:17.976Z,65.86
2022-08-01T09:12:23.847Z,65.95
2022-08-01T09:15:33.861Z,66.10
2022-08-01T09:18:56.738Z,66.21
2022-08-01T09:22:20.884Z,66.17
2022-08-01T09:25:29.649Z,66.21
2022-08-01T09:28:37.506Z,66.25
2022-08-01T09:31:47.590Z,66.27
2022-08-01T09:34:54.448Z,66.45
2022-08-01T09:38:02.645Z,66.45
2022-08-01T09:41:12.036Z,66.61
2022-08-01T09:44:18.133Z,66.65
2022-08-01T09:47:25.493Z,66.47
2022-08-01T09:50:31.115Z,66.35
2022-08-01T09:53:38.182Z,66.37
2022-08-01T09:56:44.154Z,66.25
2022-08-01T10:00:01.142Z,66.14
2022-08-01T10:03:10.045Z,66.12
2022-08-01T10:06:09.971Z,66.15
2022-08-01T10:09:17.966Z,66.22
2022-08-01T10:12:25.861Z,66.16
2022-08-01T10:15:37.071Z,66.23
2022-08-01T10:18:35.085Z,66.10
2022-08-01T10:21:54.716Z,65.96
2022-08-01T10:24:53.555Z,66.02
2022-08-01T10:28:01.341Z,66.11
2022-08-01T10:31:13.205Z,66.09
2022-08-01T10:34:23.692Z,65.95
2022-08-01T10:37:32.445Z,65.71
2022-08-01T10:40:38.454Z,65.38
2022-08-01T10:43:47.050Z,65.22
2022-08-01T10:46:59.412Z,64.90
2022-08-01T10:50:21.943Z,64.88
2022-08-01T10:53:42.262Z,65.00
2022-08-01T10:56:39.875Z,64.85
2022-08-01T10:59:50.093Z,64.90
2022-08-01T11:03:01.176Z,64.39
2022-08-01T11:06:06.993Z,64.25
2022-08-01T11:09:16.498Z,64.35
2022-08-01T11:12:30.453Z,64.29
2022-08-01T11:15:49.948Z,64.29
2022-08-01T11:18:46.419Z,64.08
2022-08-01T11:22:14.627Z,64.27
2022-08-01T11:26:06.012Z,63.99
2022-08-01T11:28:36.437Z,63.93
2022-08-01T11:31:45.313Z,63.77
2022-08-01T11:35:14.075Z,63.83
2022-08-01T11:38:41.528Z,63.91
2022-08-01T11:41:50.038Z,63.66
2022-08-01T11:45:03.876Z,63.43
2022-08-01T11:48:10.636Z,63.28
2022-08-01T11:51:21.522Z,63.16
2022-08-01T11:54:34.742Z,63.20
2022-08-01T11:57:42.514Z,63.22
2022-08-01T12:00:53.789Z,63.20
2022-08-01T12:04:01.847Z,63.23
2022-08-01T12:07:07.961Z,63.17
2022-08-01T12:10:32.272Z,63.19
2022-08-01T12:13:40.848Z,63.24
2022-08-01T12:16:48.403Z,63.27
2022-08-01T12:19:54.697Z,63.22
2022-08-01T12:23:00.742Z,63.24
2022-08-01T12:26:25.821Z,63.21
2022-08-01T12:29:16.809Z,63.14
2022-08-01T12:32:47.778Z,63.20
2022-08-01T12:35:55.729Z,63.18
2022-08-01T12:39:06.839Z,63.10
2022-08-01T12:42:13.350Z,63.16
2022-08-01T12:45:20.437Z,63.25
2022-08-01T12:48:28.331Z,63.23
2022-08-01T12:51:33.039Z,63.16
2022-08-01T12:54:38.757Z,63.23
2022-08-01T12:57:45.135Z,63.16
2022-08-01T13:00:52.799Z,63.08
2022-08-01T13:04:14.855Z,62.86
2022-08-01T13:07:22.191Z,62.88
2022-08-01T13:10:28.348Z,62.82
2022-08-01T13:13:34.129Z,62.81
2022-08-01T13:16:56.295Z,62.69
2022-08-01T13:20:02.353Z,62.69
2022-08-01T13:23:09.557Z,62.61
2022-08-01T13:26:17.824Z,62.34
2022-08-01T13:29:28.438Z,62.21
2022-08-01T13:32:38.394Z,62.21
2022-08-01T13:35:44.475Z,62.04
2022-08-01T13:39:08.080Z,61.96
2022-08-01T13:42:18.413Z,61.99
2022-08-01T13:45:22.483Z,61.93
2022-08-01T13:48:32.319Z,61.93
2022-08-01T13:51:39.605Z,61.89
2022-08-01T13:54:46.940Z,61.94
2022-08-01T13:57:52.622Z,61.85
2022-08-01T14:01:00.665Z,61.81
2022-08-01T14:04:11.502Z,61.84
2022-08-01T14:07:21.158Z,61.91
2022-08-01T14:10:28.695Z,61.93
2022-08-01T14:13:36.896Z,61.87
2022-08-01T14:16:42.001Z,61.79
2022-08-01T14:19:48.263Z,61.76
2022-08-01T14:22:56.154Z,61.78
2022-08-01T14:26:08.201Z,61.74
2022-08-01T14:29:09.123Z,61.72
2022-08-01T14:32:15.524Z,61.69
2022-08-01T14:35:23.276Z,61.58
2022-08-01T14:38:33.557Z,61.57
2022-08-01T14:41:42.122Z,61.56
2022-08-01T14:44:49.761Z,61.61
2022-08-01T14:47:57.288Z,61.53
2022-08-01T14:51:03.810Z,61.42
2022-08-01T14:54:10.024Z,61.50
2022-08-01T14:57:15.742Z,61.47
2022-08-01T15:00:23.931Z,61.62
2022-08-01T15:03:30.900Z,61.54
2022-08-01T15:06:36.767Z,61.54
2022-08-01T15:09:43.592Z,61.57
2022-08-01T15:12:52.617Z,61.47
2022-08-01T15:16:00.022Z,61.49
2022-08-01T15:19:06.186Z,61.62
2022-08-01T15:22:17.076Z,61.68
2022-08-01T15:25:41.171Z,61.71
2022-08-01T15:28:42.976Z,61.71
2022-08-01T15:31:50.395Z,61.75
2022-08-01T15:35:00.047Z,61.87
2022-08-01T15:38:07.135Z,62.00
2022-08-01T15:41:16.081Z,62.01
2022-08-01T15:44:21.864Z,62.06
2022-08-01T15:47:28.394Z,62.10
2022-08-01T15:50:34.539Z,62.15
2022-08-01T15:53:40.278Z,62.20
2022-08-01T15:56:48.238Z,62.29
2022-08-01T15:59:57.833Z,62.33
2022-08-01T16:03:00.240Z,62.34
2022-08-01T16:06:07.725Z,62.32
2022-08-01T16:09:19.215Z,62.30
2022-08-01T16:12:20.872Z,62.25
2022-08-01T16:15:33.558Z,62.13
2022-08-01T16:18:33.794Z,62.22
2022-08-01T16:21:39.814Z,62.15
2022-08-01T16:24:44.871Z,62.22
2022-08-01T16:27:50.322Z,62.24
2022-08-01T16:31:14.910Z,62.21
2022-08-01T16:34:05.187Z,62.32
2022-08-01T16:37:11.647Z,62.42
2022-08-01T16:40:17.621Z,62.48
2022-08-01T16:43:24.199Z,62.53
2022-08-01T16:46:29.626Z,62.62
2022-08-01T16:49:38.236Z,62.66
2022-08-01T16:52:44.663Z,62.77
2022-08-01T16:55:53.953Z,62.79
2022-08-01T16:59:00.753Z,62.85
2022-08-01T17:02:07.021Z,62.82
2022-08-01T17:05:13.526Z,62.87
2022-08-01T17:08:24.406Z,63.04
2022-08-01T17:11:33.329Z,63.04
2022-08-01T17:14:40.730Z,63.13
2022-08-01T17:17:47.583Z,63.28
2022-08-01T17:20:54.100Z,63.36
2022-08-01T17:24:00.426Z,63.40
2022-08-01T17:27:12.744Z,63.42
2022-08-01T17:30:16.364Z,63.65
2022-08-01T17:33:22.247Z,63.84
2022-08-01T17:36:28.528Z,63.97
2022-08-01T17:39:38.996Z,63.97
2022-08-01T17:42:42.160Z,64.09
2022-08-01T17:45:50.988Z,64.17
2022-08-01T17:48:56.161Z,64.24
2022-08-01T17:52:02.451Z,64.39
2022-08-01T17:55:55.606Z,64.41
2022-08-01T17:58:49.670Z,64.48
2022-08-01T18:01:27.842Z,64.55
2022-08-01T18:04:35.760Z,64.53
2022-08-01T18:08:00.474Z,64.66
2022-08-01T18:10:51.661Z,64.86
2022-08-01T18:13:59.799Z,64.89
2022-08-01T18:17:06.016Z,65.00
2022-08-01T18:20:13.103Z,65.22
2022-08-01T18:23:19.761Z,65.34
2022-08-01T18:26:25.428Z,65.48
2022-08-01T18:29:47.099Z,65.61
2022-08-01T18:32:37.939Z,65.72
2022-08-01T18:35:51.908Z,65.74
2022-08-01T18:38:50.618Z,65.80
2022-08-01T18:42:00.765Z,65.89
2022-08-01T18:45:06.792Z,65.97
2022-08-01T18:48:12.361Z,66.01
2022-08-01T18:51:18.210Z,66.03
2022-08-01T18:54:24.078Z,66.05
2022-08-01T18:57:29.329Z,66.13
2022-08-01T19:00:34.181Z,66.30
2022-08-01T19:03:42.802Z,66.46
2022-08-01T19:06:47.949Z,66.57
2022-08-01T19:09:55.457Z,66.67
2022-08-01T19:13:03.313Z,66.78
2022-08-01T19:16:09.883Z,66.88
2022-08-01T19:19:27.450Z,66.90
2022-08-01T19:22:28.875Z,66.97
2022-08-01T19:25:34.158Z,67.02
2022-08-01T19:28:41.171Z,67.08
2022-08-01T19:31:49.215Z,67.12
2022-08-01T19:35:00.375Z,67.11
2022-08-01T19:38:07.876Z,67.17
2022-08-01T19:41:15.058Z,67.29
2022-08-01T19:44:22.365Z,67.38
2022-08-01T19:47:53.991Z,67.42
2022-08-01T19:50:35.256Z,67.35
2022-08-01T19:53:41.712Z,67.32
2022-08-01T19:56:52.529Z,67.38
2022-08-01T20:00:02.247Z,67.44
2022-08-01T20:03:08.620Z,67.45
2022-08-01T20:06:17.774Z,67.57
2022-08-01T20:09:24.737Z,67.80
2022-08-01T20:12:36.415Z,67.79
2022-08-01T20:15:42.828Z,67.88
2022-08-01T20:18:49.392Z,68.00
2022-08-01T20:22:04.128Z,68.09
2022-08-01T20:25:10.940Z,68.24
2022-08-01T20:28:18.236Z,68.37
2022-08-01T20:31:25.205Z,68.49
2022-08-01T20:34:37.171Z,68.63
2022-08-01T20:38:06.283Z,68.74
2022-08-01T20:40:54.783Z,68.84
2022-08-01T20:44:02.602Z,68.84
2022-08-01T20:47:10.002Z,68.86
2022-08-01T20:50:54.386Z,68.89
2022-08-01T20:53:43.213Z,69.04
2022-08-01T20:57:13.306Z,69.08
2022-08-01T21:00:21.776Z,69.06
2022-08-01T21:03:37.145Z,69.14
2022-08-01T21:06:47.825Z,69.35
2022-08-01T21:09:53.814Z,69.35
2022-08-01T21:13:20.971Z,69.35
2022-08-01T21:16:26.846Z,69.34
2022-08-01T21:19:38.630Z,69.45
2022-08-01T21:22:58.792Z,69.67
2022-08-01T21:26:03.931Z,69.71
2022-08-01T21:29:09.013Z,69.86
2022-08-01T21:32:21.068Z,69.99
2022-08-01T21:35:29.693Z,70.03
2022-08-01T21:38:35.334Z,70.14
2022-08-01T21:42:04.724Z,70.22
2022-08-01T21:44:48.690Z,70.24
2022-08-01T21:47:55.932Z,70.29
2022-08-01T21:51:19.747Z,70.28
2022-08-01T21:54:55.055Z,70.34
2022-08-01T21:58:29.800Z,70.35
2022-08-01T22:01:51.553Z,70.44
2022-08-01T22:05:13.507Z,70.46
2022-08-01T22:08:21.388Z,70.55
2022-08-01T22:11:28.900Z,70.59
2022-08-01T22:14:35.173Z,70.67
2022-08-01T22:17:41.334Z,70.72
2022-08-01T22:20:47.886Z,70.77
2022-08-01T22:23:52.906Z,70.82
2022-08-01T22:27:00.203Z,70.92
2022-08-01T22:30:19.549Z,71.04
2022-08-01T22:33:26.795Z,71.11
2022-08-01T22:36:33.534Z,71.18
2022-08-01T22:39:38.169Z,71.18
2022-08-01T22:43:00.283Z,71.22
2022-08-01T22:46:22.883Z,71.23
2022-08-01T22:49:38.542Z,71.29
2022-08-01T22:52:47.134Z,71.36
2022-08-01T22:55:59.361Z,71.41
2022-08-01T22:59:03.127Z,71.50
2022-08-01T23:02:08.908Z,71.53
2022-08-01T23:05:19.649Z,71.56
2022-08-01T23:08:24.472Z,71.69
2022-08-01T23:11:30.621Z,71.79
2022-08-01T23:14:35.483Z,71.94
2022-08-01T23:17:45.807Z,72.07
2022-08-01T23:20:51.384Z,72.08
2022-08-01T23:23:57.053Z,72.13
2022-08-01T23:27:01.911Z,72.22
2022-08-01T23:30:07.437Z,72.31
2022-08-01T23:33:14.871Z,72.33
2022-08-01T23:36:21.946Z,72.32
2022-08-01T23:39:27.275Z,72.35
2022-08-01T23:42:34.240Z,72.38
2022-08-01T23:46:03.247Z,72.47
2022-08-01T23:48:48.902Z,72.53
2022-08-01T23:51:56.633Z,72.55
2022-08-01T23:55:03.458Z,72.55
2022-08-01T23:58:10.406Z,72.54
